createdAt,value
2023-01-29T05:15:28.630Z,92.35
2023-01-29T05:16:28.631Z,92.35
2023-01-29T05:17:28.597Z,92.35
2023-01-29T05:18:28.600Z,92.25
2023-01-29T05:19:28.567Z,92.46
2023-01-29T05:20:28.566Z,92.35
2023-01-29T05:21:28.566Z,92.35
2023-01-29T05:22:28.550Z,92.25
2023-01-29T05:23:28.527Z,92.35
2023-01-29T05:24:28.552Z,92.35
2023-01-29T05:25:28.495Z,92.31
2023-01-29T05:26:28.497Z,92.31
2023-01-29T05:27:28.483Z,92.35
2023-01-29T05:28:28.479Z,92.42
2023-01-29T05:29:28.448Z,92.31
2023-01-29T05:30:28.445Z,92.21
2023-01-29T05:31:28.496Z,92.21
2023-01-29T05:32:28.414Z,92.10
2023-01-29T05:33:35.596Z,92.10
2023-01-29T05:34:28.397Z,92.10
2023-01-29T05:35:28.383Z,92.10
2023-01-29T05:36:28.382Z,92.00
2023-01-29T05:37:28.350Z,92.00
2023-01-29T05:38:28.347Z,91.89
2023-01-29T05:39:28.326Z,92.00
2023-01-29T05:40:28.315Z,91.89
2023-01-29T05:41:28.316Z,91.89
2023-01-29T05:42:28.286Z,92.00
2023-01-29T05:43:28.279Z,91.89
2023-01-29T05:44:28.264Z,91.89
2023-01-29T05:45:28.246Z,91.89
2023-01-29T05:46:28.279Z,91.79
2023-01-29T05:47:28.222Z,91.69
2023-01-29T05:48:28.354Z,91.79
2023-01-29T05:49:28.199Z,91.89
2023-01-29T05:50:28.238Z,92.00
2023-01-29T05:51:28.183Z,92.00
2023-01-29T05:52:28.165Z,92.00
2023-01-29T05:53:28.143Z,92.00
2023-01-29T05:54:28.156Z,92.21
2023-01-29T05:55:28.121Z,92.06
2023-01-29T05:56:28.127Z,91.96
2023-01-29T05:57:28.098Z,91.96
2023-01-29T05:58:28.133Z,91.85
2023-01-29T05:59:28.061Z,91.96
2023-01-29T06:00:28.062Z,91.96
2023-01-29T06:01:28.075Z,92.06
2023-01-29T06:02:28.031Z,92.06
2023-01-29T06:03:28.021Z,91.96
2023-01-29T06:04:28.061Z,91.96
2023-01-29T06:05:27.994Z,91.85
2023-01-29T06:06:28.001Z,91.96
2023-01-29T06:07:27.971Z,91.96
2023-01-29T06:08:27.959Z,92.06
2023-01-29T06:09:27.941Z,92.06
2023-01-29T06:10:27.929Z,91.96
2023-01-29T06:11:27.909Z,91.96
2023-01-29T06:12:27.924Z,92.06
2023-01-29T06:13:27.888Z,92.06
2023-01-29T06:14:27.893Z,91.85
2023-01-29T06:15:27.861Z,91.85
2023-01-29T06:16:27.915Z,91.85
2023-01-29T06:17:27.852Z,91.85
2023-01-29T06:18:27.842Z,91.96
2023-01-29T06:19:27.826Z,92.06
2023-01-29T06:20:27.807Z,92.06
2023-01-29T06:21:27.776Z,92.06
2023-01-29T06:22:27.795Z,92.06
2023-01-29T06:23:27.766Z,91.96
2023-01-29T06:24:27.780Z,91.85
2023-01-29T06:25:27.735Z,91.75
2023-01-29T06:26:27.725Z,91.64
2023-01-29T06:27:27.716Z,91.64
2023-01-29T06:28:27.697Z,91.75
2023-01-29T06:29:27.692Z,91.75
2023-01-29T06:30:27.674Z,91.96
2023-01-29T06:31:38.199Z,91.96
2023-01-29T06:32:28.712Z,91.96
2023-01-29T06:33:27.646Z,91.96
2023-01-29T06:34:27.628Z,91.75
2023-01-29T06:35:27.614Z,91.75
2023-01-29T06:36:27.625Z,91.75
2023-01-29T06:37:27.596Z,91.85
2023-01-29T06:38:27.582Z,91.85
2023-01-29T06:39:27.552Z,91.96
2023-01-29T06:40:27.541Z,92.06
2023-01-29T06:41:27.531Z,92.06
2023-01-29T06:42:27.538Z,92.06
2023-01-29T06:43:27.503Z,92.06
2023-01-29T06:44:27.504Z,92.16
2023-01-29T06:45:27.493Z,92.06
2023-01-29T06:46:27.482Z,92.06
2023-01-29T06:47:27.706Z,92.06
2023-01-29T06:48:27.441Z,91.96
2023-01-29T06:49:27.429Z,91.96
2023-01-29T06:50:27.421Z,91.85
2023-01-29T06:51:27.399Z,91.96
2023-01-29T06:52:27.400Z,91.96
2023-01-29T06:53:27.369Z,91.85
2023-01-29T06:54:27.372Z,91.96
2023-01-29T06:55:27.348Z,91.96
2023-01-29T06:56:27.359Z,92.06
2023-01-29T06:57:27.351Z,91.91
2023-01-29T06:58:27.316Z,91.96
2023-01-29T06:59:27.311Z,91.96
2023-01-29T07:00:27.287Z,92.16
2023-01-29T07:01:35.573Z,91.96
2023-01-29T07:02:28.346Z,91.91
2023-01-29T07:03:27.246Z,91.91
2023-01-29T07:04:27.236Z,91.81
2023-01-29T07:05:27.230Z,91.91
2023-01-29T07:06:27.214Z,91.96
2023-01-29T07:07:27.215Z,92.06
2023-01-29T07:08:27.184Z,92.06
2023-01-29T07:09:27.165Z,92.06
2023-01-29T07:10:27.163Z,92.02
2023-01-29T07:11:27.144Z,92.02
2023-01-29T07:12:27.155Z,91.91
2023-01-29T07:13:27.127Z,91.91
2023-01-29T07:14:27.114Z,91.91
2023-01-29T07:15:27.113Z,91.81
2023-01-29T07:16:27.197Z,91.81
2023-01-29T07:17:27.084Z,91.71
2023-01-29T07:18:27.053Z,91.71
2023-01-29T07:19:27.032Z,91.71
2023-01-29T07:20:27.032Z,91.81
2023-01-29T07:21:27.027Z,92.02
2023-01-29T07:22:27.027Z,92.02
2023-01-29T07:23:26.990Z,91.91
2023-01-29T07:24:27.037Z,91.91
2023-01-29T07:25:26.964Z,91.91
2023-01-29T07:26:26.962Z,92.02
2023-01-29T07:27:26.952Z,92.13
2023-01-29T07:28:26.933Z,92.13
2023-01-29T07:29:26.910Z,92.33
2023-01-29T07:30:26.907Z,92.44
2023-01-29T07:31:27.017Z,92.44
2023-01-29T07:32:26.892Z,92.44
2023-01-29T07:33:26.873Z,92.33
2023-01-29T07:34:26.853Z,92.23
2023-01-29T07:35:26.830Z,92.23
2023-01-29T07:36:26.828Z,92.33
2023-01-29T07:37:26.825Z,92.33
2023-01-29T07:38:26.811Z,92.33
2023-01-29T07:39:26.782Z,92.33
2023-01-29T07:40:26.778Z,92.23
2023-01-29T07:41:26.757Z,92.23
2023-01-29T07:42:26.769Z,92.23
2023-01-29T07:43:26.745Z,92.23
2023-01-29T07:44:26.726Z,92.13
2023-01-29T07:45:26.708Z,92.02
2023-01-29T07:46:26.709Z,92.02
2023-01-29T07:47:26.701Z,91.91
2023-01-29T07:48:26.666Z,91.81
2023-01-29T07:49:26.690Z,91.81
2023-01-29T07:50:26.654Z,91.81
2023-01-29T07:51:26.650Z,91.81
2023-01-29T07:52:26.646Z,91.91
2023-01-29T07:53:26.602Z,91.71
2023-01-29T07:54:26.595Z,91.71
2023-01-29T07:55:26.573Z,91.71
2023-01-29T07:56:26.565Z,91.71
2023-01-29T07:57:26.570Z,91.60
2023-01-29T07:58:26.543Z,91.60
2023-01-29T07:59:26.523Z,91.81
2023-01-29T08:00:26.526Z,91.81
2023-01-29T08:01:26.606Z,91.81
2023-01-29T08:02:26.552Z,91.77
2023-01-29T08:03:26.485Z,91.66
2023-01-29T08:04:26.470Z,91.56
2023-01-29T08:05:26.459Z,91.56
2023-01-29T08:06:26.457Z,91.46
2023-01-29T08:07:26.453Z,91.46
2023-01-29T08:08:26.427Z,91.35
2023-01-29T08:09:26.401Z,91.35
2023-01-29T08:10:26.402Z,91.50
2023-01-29T08:11:26.382Z,91.39
2023-01-29T08:12:26.391Z,91.39
2023-01-29T08:13:26.349Z,91.50
2023-01-29T08:14:26.339Z,91.50
2023-01-29T08:15:26.323Z,91.60
2023-01-29T08:16:26.351Z,91.56
2023-01-29T08:17:26.311Z,91.60
2023-01-29T08:18:26.291Z,91.71
2023-01-29T08:19:26.273Z,91.98
2023-01-29T08:20:26.257Z,91.87
2023-01-29T08:21:26.259Z,91.56
2023-01-29T08:22:26.249Z,91.87
2023-01-29T08:23:26.229Z,92.19
2023-01-29T08:24:35.949Z,91.56
2023-01-29T08:25:27.621Z,91.66
2023-01-29T08:26:26.202Z,91.25
2023-01-29T08:27:26.192Z,91.56
2023-01-29T08:28:26.159Z,91.14
2023-01-29T08:29:26.145Z,90.93
2023-01-29T08:30:26.153Z,91.03
2023-01-29T08:31:26.146Z,91.25
2023-01-29T08:32:26.124Z,91.35
2023-01-29T08:33:38.067Z,91.25
2023-01-29T08:34:27.075Z,91.14
2023-01-29T08:35:26.079Z,91.14
2023-01-29T08:36:26.062Z,91.03
2023-01-29T08:37:26.066Z,91.03
2023-01-29T08:38:26.036Z,91.03
2023-01-29T08:39:26.023Z,91.03
2023-01-29T08:40:26.007Z,91.35
2023-01-29T08:41:25.997Z,91.14
2023-01-29T08:42:25.993Z,90.93
2023-01-29T08:43:25.981Z,90.93
2023-01-29T08:44:25.952Z,91.03
2023-01-29T08:45:25.972Z,91.14
2023-01-29T08:46:25.922Z,91.25
2023-01-29T08:47:27.445Z,91.46
2023-01-29T08:48:25.912Z,91.35
2023-01-29T08:49:25.893Z,91.35
2023-01-29T08:50:25.922Z,91.14
2023-01-29T08:51:25.870Z,91.03
2023-01-29T08:52:25.860Z,90.93
2023-01-29T08:53:25.841Z,90.89
2023-01-29T08:54:25.820Z,91.03
2023-01-29T08:55:25.819Z,91.00
2023-01-29T08:56:25.799Z,90.78
2023-01-29T08:57:25.800Z,90.68
2023-01-29T08:58:25.774Z,90.68
2023-01-29T08:59:25.763Z,91.00
2023-01-29T09:00:25.844Z,90.89
2023-01-29T09:01:25.769Z,90.68
2023-01-29T09:02:25.858Z,90.68
2023-01-29T09:03:25.715Z,90.78
2023-01-29T09:04:25.727Z,90.78
2023-01-29T09:05:25.687Z,90.78
2023-01-29T09:06:25.667Z,90.68
2023-01-29T09:07:25.677Z,90.68
2023-01-29T09:08:25.646Z,91.69
2023-01-29T09:09:25.639Z,90.95
2023-01-29T09:10:25.620Z,90.43
2023-01-29T09:11:25.614Z,90.12
2023-01-29T09:12:25.605Z,90.16
2023-01-29T09:13:25.586Z,90.06
2023-01-29T09:14:25.564Z,90.37
2023-01-29T09:15:25.581Z,90.47
2023-01-29T09:16:25.567Z,90.58
2023-01-29T09:17:25.557Z,90.58
2023-01-29T09:18:25.515Z,90.68
2023-01-29T09:19:25.504Z,90.47
2023-01-29T09:20:25.495Z,90.37
2023-01-29T09:21:25.484Z,90.26
2023-01-29T09:22:25.471Z,90.47
2023-01-29T09:23:25.464Z,90.58
2023-01-29T09:24:25.445Z,90.58
2023-01-29T09:25:25.431Z,90.75
2023-01-29T09:26:25.446Z,90.64
2023-01-29T09:27:25.403Z,90.33
2023-01-29T09:28:25.427Z,90.22
2023-01-29T09:29:25.382Z,90.22
2023-01-29T09:30:25.361Z,90.22
2023-01-29T09:31:25.487Z,90.95
2023-01-29T09:32:55.315Z,90.53
2023-01-29T09:33:26.335Z,90.33
2023-01-29T09:34:25.326Z,90.12
2023-01-29T09:35:25.290Z,90.01
2023-01-29T09:36:25.299Z,90.12
2023-01-29T09:37:25.270Z,90.12
2023-01-29T09:38:25.270Z,90.01
2023-01-29T09:39:25.248Z,90.01
2023-01-29T09:40:25.239Z,90.75
2023-01-29T09:41:25.218Z,90.12
2023-01-29T09:42:25.208Z,89.70
2023-01-29T09:43:25.238Z,89.81
2023-01-29T09:44:25.182Z,90.22
2023-01-29T09:45:25.166Z,89.91
2023-01-29T09:46:25.198Z,89.91
2023-01-29T09:47:25.153Z,90.33
2023-01-29T09:48:25.211Z,90.22
2023-01-29T09:49:25.118Z,89.81
2023-01-29T09:50:25.124Z,89.91
2023-01-29T09:51:25.086Z,89.91
2023-01-29T09:52:25.087Z,90.28
2023-01-29T09:53:25.084Z,90.39
2023-01-29T09:54:25.055Z,90.18
2023-01-29T09:55:25.065Z,89.97
2023-01-29T09:56:25.034Z,89.76
2023-01-29T09:57:25.016Z,89.45
2023-01-29T09:58:25.018Z,89.10
2023-01-29T09:59:25.000Z,89.03
2023-01-29T10:00:24.983Z,89.83
2023-01-29T10:01:25.033Z,90.14
2023-01-29T10:02:24.999Z,90.14
2023-01-29T10:03:24.959Z,89.20
2023-01-29T10:04:25.068Z,88.57
2023-01-29T10:05:24.910Z,88.47
2023-01-29T10:06:24.918Z,88.72
2023-01-29T10:07:24.882Z,88.82
2023-01-29T10:08:24.881Z,88.93
2023-01-29T10:09:24.883Z,89.03
2023-01-29T10:10:24.853Z,89.24
2023-01-29T10:11:24.838Z,89.24
2023-01-29T10:12:24.831Z,89.14
2023-01-29T10:13:24.810Z,89.31
2023-01-29T10:14:24.793Z,88.99
2023-01-29T10:15:24.784Z,88.68
2023-01-29T10:16:24.768Z,88.82
2023-01-29T10:17:24.761Z,88.93
2023-01-29T10:18:24.761Z,88.93
2023-01-29T10:19:24.744Z,89.03
2023-01-29T10:20:24.730Z,89.14
2023-01-29T10:21:24.709Z,89.14
2023-01-29T10:22:24.697Z,89.14
2023-01-29T10:23:24.690Z,89.03
2023-01-29T10:24:24.678Z,89.14
2023-01-29T10:25:24.659Z,89.03
2023-01-29T10:26:24.714Z,89.14
2023-01-29T10:27:24.630Z,88.93
2023-01-29T10:28:24.638Z,88.99
2023-01-29T10:29:24.613Z,89.10
2023-01-29T10:30:24.596Z,88.99
2023-01-29T10:31:24.719Z,88.78
2023-01-29T10:32:24.565Z,88.78
2023-01-29T10:33:24.558Z,88.68
2023-01-29T10:34:24.537Z,88.78
2023-01-29T10:35:24.531Z,88.99
2023-01-29T10:36:24.516Z,88.78
2023-01-29T10:37:24.513Z,88.78
2023-01-29T10:38:24.562Z,88.57
2023-01-29T10:39:24.513Z,88.26
2023-01-29T10:40:24.514Z,88.09
2023-01-29T10:41:24.499Z,88.09
2023-01-29T10:42:24.477Z,88.09
2023-01-29T10:43:24.444Z,88.20
2023-01-29T10:44:24.442Z,88.20
2023-01-29T10:45:24.392Z,88.30
2023-01-29T10:46:24.417Z,88.51
2023-01-29T10:47:24.540Z,88.62
2023-01-29T10:48:24.372Z,89.03
2023-01-29T10:49:24.360Z,88.93
2023-01-29T10:50:24.351Z,88.78
2023-01-29T10:51:24.312Z,88.57
2023-01-29T10:52:24.319Z,88.57
2023-01-29T10:53:24.425Z,88.57
2023-01-29T10:54:24.402Z,88.68
2023-01-29T10:55:24.270Z,88.37
2023-01-29T10:56:24.254Z,88.37
2023-01-29T10:57:24.244Z,88.26
2023-01-29T10:58:24.335Z,88.26
2023-01-29T10:59:24.365Z,88.16
2023-01-29T11:00:24.273Z,88.06
2023-01-29T11:01:24.296Z,88.16
2023-01-29T11:02:24.213Z,88.06
2023-01-29T11:03:28.783Z,88.06
2023-01-29T11:04:25.170Z,88.16
2023-01-29T11:05:24.186Z,88.16
2023-01-29T11:06:24.133Z,88.37
2023-01-29T11:07:24.118Z,88.16
2023-01-29T11:08:24.112Z,88.06
2023-01-29T11:09:24.110Z,88.06
2023-01-29T11:10:24.165Z,88.06
2023-01-29T11:11:24.058Z,88.06
2023-01-29T11:12:24.132Z,87.95
2023-01-29T11:13:24.080Z,88.06
2023-01-29T11:14:24.042Z,88.06
2023-01-29T11:15:24.006Z,87.95
2023-01-29T11:16:24.012Z,87.63
2023-01-29T11:17:24.049Z,87.53
2023-01-29T11:18:23.997Z,87.63
2023-01-29T11:19:23.958Z,87.60
2023-01-29T11:20:24.003Z,87.39
2023-01-29T11:21:24.029Z,87.39
2023-01-29T11:22:23.917Z,87.39
2023-01-29T11:23:23.953Z,87.39
2023-01-29T11:24:23.910Z,87.28
2023-01-29T11:25:23.876Z,87.28
2023-01-29T11:26:24.042Z,87.28
2023-01-29T11:27:23.883Z,87.18
2023-01-29T11:28:23.877Z,87.18
2023-01-29T11:29:23.863Z,87.07
2023-01-29T11:30:23.824Z,87.07
2023-01-29T11:31:23.911Z,86.97
2023-01-29T11:32:23.802Z,86.97
2023-01-29T11:33:23.830Z,86.87
2023-01-29T11:34:23.781Z,86.87
2023-01-29T11:35:23.759Z,86.97
2023-01-29T11:36:23.743Z,86.87
2023-01-29T11:37:23.732Z,86.76
2023-01-29T11:38:23.762Z,86.55
2023-01-29T11:39:23.723Z,86.45
2023-01-29T11:40:23.690Z,86.66
2023-01-29T11:41:23.713Z,86.76
2023-01-29T11:42:23.719Z,86.76
2023-01-29T11:43:23.671Z,86.66
2023-01-29T11:44:23.729Z,86.66
2023-01-29T11:45:23.713Z,86.55
2023-01-29T11:46:23.676Z,86.45
2023-01-29T11:47:23.664Z,86.66
2023-01-29T11:48:23.616Z,86.66
2023-01-29T11:49:23.656Z,86.66
2023-01-29T11:50:23.608Z,86.51
2023-01-29T11:51:23.582Z,86.51
2023-01-29T11:52:23.562Z,86.51
2023-01-29T11:53:23.549Z,85.99
2023-01-29T11:54:23.586Z,85.99
2023-01-29T11:55:23.576Z,85.78
2023-01-29T11:56:23.560Z,85.89
2023-01-29T11:57:23.529Z,85.99
2023-01-29T11:58:23.567Z,86.10
2023-01-29T11:59:23.484Z,85.89
2023-01-29T12:00:23.504Z,85.58
2023-01-29T12:01:23.449Z,85.36
2023-01-29T12:02:23.437Z,85.47
2023-01-29T12:03:25.075Z,85.58
2023-01-29T12:04:23.512Z,85.68
2023-01-29T12:05:23.413Z,85.26
2023-01-29T12:06:23.402Z,85.36
2023-01-29T12:07:23.393Z,85.47
2023-01-29T12:08:23.390Z,85.58
2023-01-29T12:09:23.401Z,85.16
2023-01-29T12:10:23.382Z,85.16
2023-01-29T12:11:23.334Z,84.95
2023-01-29T12:12:23.345Z,85.05
2023-01-29T12:13:23.326Z,85.02
2023-01-29T12:14:23.421Z,84.95
2023-01-29T12:15:23.312Z,84.84
2023-01-29T12:16:24.323Z,85.05
2023-01-29T12:17:23.311Z,85.05
2023-01-29T12:18:23.245Z,85.16
2023-01-29T12:19:23.188Z,85.26
2023-01-29T12:20:23.183Z,85.02
2023-01-29T12:21:23.224Z,85.02
2023-01-29T12:22:23.206Z,84.95
2023-01-29T12:23:23.194Z,84.95
2023-01-29T12:24:23.219Z,84.84
2023-01-29T12:25:23.196Z,85.05
2023-01-29T12:26:23.193Z,84.95
2023-01-29T12:27:23.155Z,85.02
2023-01-29T12:28:23.163Z,85.02
2023-01-29T12:29:23.104Z,84.70
2023-01-29T12:30:23.109Z,84.84
2023-01-29T12:31:23.118Z,84.95
2023-01-29T12:32:23.081Z,84.95
2023-01-29T12:33:23.106Z,84.95
2023-01-29T12:34:23.052Z,85.02
2023-01-29T12:35:23.031Z,84.91
2023-01-29T12:36:23.029Z,84.81
2023-01-29T12:37:23.010Z,85.02
2023-01-29T12:38:22.944Z,84.70
2023-01-29T12:39:22.932Z,84.70
2023-01-29T12:40:22.961Z,84.70
2023-01-29T12:41:22.983Z,84.70
2023-01-29T12:42:22.979Z,84.60
2023-01-29T12:43:22.942Z,84.70
2023-01-29T12:44:22.931Z,84.91
2023-01-29T12:45:22.934Z,84.60
2023-01-29T12:46:22.977Z,84.50
2023-01-29T12:47:22.871Z,84.28
2023-01-29T12:48:22.857Z,84.18
2023-01-29T12:49:22.849Z,84.28
2023-01-29T12:50:22.852Z,84.39
2023-01-29T12:51:22.859Z,84.50
2023-01-29T12:52:22.790Z,84.81
2023-01-29T12:53:22.839Z,84.70
2023-01-29T12:54:22.779Z,84.50
2023-01-29T12:55:22.823Z,84.60
2023-01-29T12:56:22.730Z,84.50
2023-01-29T12:57:22.764Z,84.81
2023-01-29T12:58:22.717Z,84.28
2023-01-29T12:59:22.699Z,84.18
2023-01-29T13:00:22.739Z,84.28
2023-01-29T13:01:22.725Z,84.18
2023-01-29T13:02:22.673Z,84.18
2023-01-29T13:03:22.748Z,83.97
2023-01-29T13:04:22.664Z,83.97
2023-01-29T13:05:22.675Z,83.87
2023-01-29T13:06:22.632Z,83.76
2023-01-29T13:07:22.633Z,83.87
2023-01-29T13:08:22.643Z,83.97
2023-01-29T13:09:22.652Z,84.08
2023-01-29T13:10:22.651Z,83.97
2023-01-29T13:11:22.564Z,83.97
2023-01-29T13:12:22.541Z,83.87
2023-01-29T13:13:22.524Z,83.97
2023-01-29T13:14:22.512Z,84.08
2023-01-29T13:15:22.564Z,84.28
2023-01-29T13:16:22.468Z,83.94
2023-01-29T13:17:22.430Z,84.04
2023-01-29T13:18:22.410Z,83.94
2023-01-29T13:19:22.528Z,83.62
2023-01-29T13:20:22.658Z,83.62
2023-01-29T13:21:22.427Z,83.83
2023-01-29T13:22:22.484Z,83.83
2023-01-29T13:23:22.406Z,83.83
2023-01-29T13:24:22.417Z,83.97
2023-01-29T13:25:22.660Z,83.87
2023-01-29T13:26:22.356Z,84.08
2023-01-29T13:27:22.375Z,84.18
2023-01-29T13:28:22.321Z,84.14
2023-01-29T13:29:22.359Z,84.14
2023-01-29T13:30:22.339Z,83.83
2023-01-29T13:31:22.329Z,83.73
2023-01-29T13:32:22.313Z,83.83
2023-01-29T13:33:22.257Z,83.83
2023-01-29T13:34:22.255Z,83.73
2023-01-29T13:35:22.278Z,83.83
2023-01-29T13:36:22.241Z,83.94
2023-01-29T13:37:22.229Z,83.94
2023-01-29T13:38:22.190Z,84.08
2023-01-29T13:39:22.248Z,84.18
2023-01-29T13:40:22.197Z,84.28
2023-01-29T13:41:22.200Z,84.50
2023-01-29T13:42:22.186Z,84.39
2023-01-29T13:43:22.118Z,84.50
2023-01-29T13:44:22.147Z,84.60
2023-01-29T13:45:22.145Z,84.60
2023-01-29T13:46:22.168Z,84.28
2023-01-29T13:47:22.120Z,84.39
2023-01-29T13:48:22.097Z,84.28
2023-01-29T13:49:22.084Z,84.39
2023-01-29T13:50:23.122Z,84.70
2023-01-29T13:51:22.223Z,84.56
2023-01-29T13:52:22.035Z,84.39
2023-01-29T13:53:22.056Z,84.28
2023-01-29T13:54:22.015Z,84.39
2023-01-29T13:55:22.005Z,84.39
2023-01-29T13:56:22.005Z,84.60
2023-01-29T13:57:21.974Z,84.81
2023-01-29T13:58:22.014Z,84.70
2023-01-29T13:59:21.921Z,84.70
2023-01-29T14:00:21.943Z,84.81
2023-01-29T14:01:21.979Z,84.81
2023-01-29T14:02:22.032Z,84.60
2023-01-29T14:03:21.922Z,84.60
2023-01-29T14:04:21.918Z,84.70
2023-01-29T14:05:22.891Z,84.70
2023-01-29T14:06:21.872Z,84.50
2023-01-29T14:07:21.831Z,84.70
2023-01-29T14:08:21.831Z,84.81
2023-01-29T14:09:21.825Z,84.91
2023-01-29T14:10:21.795Z,84.70
2023-01-29T14:11:21.799Z,84.60
2023-01-29T14:12:21.787Z,84.56
2023-01-29T14:13:21.800Z,84.50
2023-01-29T14:14:21.709Z,84.45
2023-01-29T14:15:22.406Z,84.45
2023-01-29T14:16:21.764Z,84.50
2023-01-29T14:17:21.718Z,84.60
2023-01-29T14:18:21.760Z,84.70
2023-01-29T14:19:21.761Z,84.77
2023-01-29T14:20:22.326Z,84.70
2023-01-29T14:21:21.693Z,84.60
2023-01-29T14:22:21.615Z,84.60
2023-01-29T14:23:21.567Z,84.70
2023-01-29T14:24:28.613Z,84.70
2023-01-29T14:25:21.537Z,84.91
2023-01-29T14:26:21.581Z,84.70
2023-01-29T14:27:21.519Z,84.81
2023-01-29T14:28:21.518Z,84.81
2023-01-29T14:29:32.819Z,84.81
2023-01-29T14:30:22.489Z,84.81
2023-01-29T14:31:21.555Z,84.81
2023-01-29T14:32:21.457Z,84.91
2023-01-29T14:33:21.444Z,84.91
2023-01-29T14:34:21.439Z,85.02
2023-01-29T14:35:21.418Z,85.02
2023-01-29T14:36:21.417Z,85.22
2023-01-29T14:37:21.408Z,85.22
2023-01-29T14:38:21.375Z,85.22
2023-01-29T14:39:21.363Z,85.02
2023-01-29T14:40:21.352Z,85.12
2023-01-29T14:41:21.343Z,85.22
2023-01-29T14:42:21.338Z,85.22
2023-01-29T14:43:21.303Z,85.12
2023-01-29T14:44:21.303Z,85.02
2023-01-29T14:45:21.285Z,85.12
2023-01-29T14:46:21.314Z,85.12
2023-01-29T14:47:21.254Z,85.12
2023-01-29T14:48:21.255Z,85.22
2023-01-29T14:49:21.232Z,85.22
2023-01-29T14:50:21.224Z,85.22
2023-01-29T14:51:21.222Z,85.22
2023-01-29T14:52:21.193Z,85.12
2023-01-29T14:53:21.187Z,85.22
2023-01-29T14:54:21.171Z,85.33
2023-01-29T14:55:21.155Z,85.22
2023-01-29T14:56:21.158Z,85.22
2023-01-29T14:57:21.129Z,85.12
2023-01-29T14:58:21.120Z,85.22
2023-01-29T14:59:21.100Z,85.33
2023-01-29T15:00:21.091Z,85.33
2023-01-29T15:01:21.225Z,85.33
2023-01-29T15:02:21.106Z,85.33
2023-01-29T15:03:21.055Z,85.33
2023-01-29T15:04:21.081Z,85.53
2023-01-29T15:05:21.044Z,85.43
2023-01-29T15:06:21.064Z,85.43
2023-01-29T15:07:21.005Z,85.43
2023-01-29T15:08:20.988Z,85.33
2023-01-29T15:09:22.053Z,85.33
2023-01-29T15:10:22.988Z,85.53
2023-01-29T15:11:20.977Z,85.64
2023-01-29T15:12:20.946Z,85.64
2023-01-29T15:13:20.927Z,85.64
2023-01-29T15:14:20.919Z,85.64
2023-01-29T15:15:20.887Z,85.64
2023-01-29T15:16:20.906Z,85.64
2023-01-29T15:17:20.867Z,85.53
2023-01-29T15:18:20.859Z,85.74
2023-01-29T15:19:20.836Z,85.85
2023-01-29T15:20:20.835Z,86.06
2023-01-29T15:21:20.824Z,86.06
2023-01-29T15:22:20.849Z,85.96
2023-01-29T15:23:20.786Z,85.96
2023-01-29T15:24:20.785Z,85.96
2023-01-29T15:25:20.756Z,86.06
2023-01-29T15:26:20.779Z,86.06
2023-01-29T15:27:20.747Z,86.16
2023-01-29T15:28:20.734Z,86.37
2023-01-29T15:29:20.717Z,86.37
2023-01-29T15:30:20.703Z,86.37
2023-01-29T15:31:20.797Z,86.47
2023-01-29T15:32:20.684Z,86.58
2023-01-29T15:33:20.664Z,86.58
2023-01-29T15:34:20.652Z,86.68
2023-01-29T15:35:20.631Z,86.68
2023-01-29T15:36:20.622Z,86.58
2023-01-29T15:37:20.622Z,86.68
2023-01-29T15:38:20.604Z,86.79
2023-01-29T15:39:20.581Z,86.79
2023-01-29T15:40:20.575Z,86.99
2023-01-29T15:41:20.564Z,86.99
2023-01-29T15:42:20.555Z,87.10
2023-01-29T15:43:20.532Z,87.20
2023-01-29T15:44:20.520Z,87.30
2023-01-29T15:45:20.499Z,87.30
2023-01-29T15:46:20.489Z,87.41
2023-01-29T15:47:20.547Z,87.52
2023-01-29T15:48:20.480Z,87.73
2023-01-29T15:49:20.448Z,87.73
2023-01-29T15:50:20.450Z,87.73
2023-01-29T15:51:20.428Z,87.93
2023-01-29T15:52:20.433Z,87.93
2023-01-29T15:53:20.415Z,87.93
2023-01-29T15:54:20.405Z,88.04
2023-01-29T15:55:20.376Z,88.14
2023-01-29T15:56:20.368Z,88.24
2023-01-29T15:57:20.367Z,88.45
2023-01-29T15:58:20.336Z,88.56
2023-01-29T15:59:20.324Z,88.56
2023-01-29T16:00:20.316Z,88.66
2023-01-29T16:01:20.341Z,88.66
2023-01-29T16:02:20.366Z,88.56
2023-01-29T16:03:20.276Z,88.56
2023-01-29T16:04:20.266Z,88.56
2023-01-29T16:05:20.385Z,88.45
2023-01-29T16:06:20.236Z,88.56
2023-01-29T16:07:20.234Z,88.56
2023-01-29T16:08:20.225Z,88.56
2023-01-29T16:09:20.224Z,88.66
2023-01-29T16:10:20.184Z,88.66
2023-01-29T16:11:20.164Z,88.76
2023-01-29T16:12:20.168Z,88.76
2023-01-29T16:13:20.144Z,88.76
2023-01-29T16:14:20.174Z,88.87
2023-01-29T16:15:20.116Z,88.87
2023-01-29T16:16:20.280Z,88.87
2023-01-29T16:17:20.104Z,88.76
2023-01-29T16:18:20.072Z,88.66
2023-01-29T16:19:20.061Z,88.76
2023-01-29T16:20:20.054Z,88.87
2023-01-29T16:21:20.074Z,88.87
2023-01-29T16:22:20.043Z,88.87
2023-01-29T16:23:20.017Z,88.87
2023-01-29T16:24:20.001Z,88.87
2023-01-29T16:25:20.465Z,88.76
2023-01-29T16:26:19.991Z,88.66
2023-01-29T16:27:19.980Z,88.76
2023-01-29T16:28:19.953Z,88.87
2023-01-29T16:29:19.939Z,88.98
2023-01-29T16:30:19.932Z,88.98
2023-01-29T16:31:20.020Z,89.08
2023-01-29T16:32:19.991Z,88.98
2023-01-29T16:33:19.888Z,88.98
2023-01-29T16:34:19.883Z,88.87
2023-01-29T16:35:20.097Z,88.87
2023-01-29T16:36:19.839Z,88.98
2023-01-29T16:37:19.855Z,89.08
2023-01-29T16:38:19.819Z,89.08
2023-01-29T16:39:19.800Z,89.08
2023-01-29T16:40:19.795Z,89.08
2023-01-29T16:41:19.780Z,88.98
2023-01-29T16:42:19.793Z,88.98
2023-01-29T16:43:19.768Z,88.98
2023-01-29T16:44:19.755Z,89.08
2023-01-29T16:45:19.897Z,89.08
2023-01-29T16:46:19.751Z,89.08
2023-01-29T16:47:19.712Z,89.08
2023-01-29T16:48:19.707Z,89.18
2023-01-29T16:49:19.698Z,89.29
2023-01-29T16:50:19.667Z,89.18
2023-01-29T16:51:19.646Z,89.18
2023-01-29T16:52:19.643Z,89.18
2023-01-29T16:53:19.652Z,89.18
2023-01-29T16:54:19.613Z,89.18
2023-01-29T16:55:20.292Z,89.18
2023-01-29T16:56:19.584Z,89.18
2023-01-29T16:57:19.563Z,89.29
2023-01-29T16:58:19.615Z,89.29
2023-01-29T16:59:19.553Z,89.39
2023-01-29T17:00:19.536Z,89.39
2023-01-29T17:01:19.515Z,89.39
2023-01-29T17:02:19.522Z,89.39
2023-01-29T17:03:19.501Z,89.50
2023-01-29T17:04:19.501Z,89.50
2023-01-29T17:05:19.955Z,89.50
2023-01-29T17:06:19.451Z,89.50
2023-01-29T17:07:19.439Z,89.50
2023-01-29T17:08:19.430Z,89.60
2023-01-29T17:09:19.412Z,89.60
2023-01-29T17:10:19.421Z,89.60
2023-01-29T17:11:19.381Z,89.60
2023-01-29T17:12:19.370Z,89.60
2023-01-29T17:13:19.383Z,89.70
2023-01-29T17:14:19.351Z,89.70
2023-01-29T17:15:19.569Z,89.66
2023-01-29T17:16:19.371Z,89.56
2023-01-29T17:17:19.298Z,89.45
2023-01-29T17:18:19.310Z,89.56
2023-01-29T17:19:19.284Z,89.56
2023-01-29T17:20:19.284Z,89.45
2023-01-29T17:21:19.263Z,89.56
2023-01-29T17:22:19.249Z,89.56
2023-01-29T17:23:19.247Z,89.66
2023-01-29T17:24:20.100Z,89.66
2023-01-29T17:25:19.752Z,89.66
2023-01-29T17:26:19.193Z,89.76
2023-01-29T17:27:19.176Z,89.66
2023-01-29T17:28:19.167Z,89.66
2023-01-29T17:29:19.157Z,89.76
2023-01-29T17:30:19.179Z,89.66
2023-01-29T17:31:19.334Z,89.56
2023-01-29T17:32:19.109Z,89.45
2023-01-29T17:33:19.115Z,89.56
2023-01-29T17:34:19.085Z,89.56
2023-01-29T17:35:19.363Z,89.60
2023-01-29T17:36:19.094Z,89.81
2023-01-29T17:37:19.074Z,89.76
2023-01-29T17:38:25.991Z,89.66
2023-01-29T17:39:20.024Z,89.66
2023-01-29T17:40:19.020Z,89.66
2023-01-29T17:41:19.004Z,89.66
2023-01-29T17:42:18.994Z,89.66
2023-01-29T17:43:19.002Z,89.56
2023-01-29T17:44:18.960Z,89.35
2023-01-29T17:45:19.427Z,89.35
2023-01-29T17:46:18.938Z,89.35
2023-01-29T17:47:18.922Z,89.35
2023-01-29T17:48:18.916Z,89.25
2023-01-29T17:49:18.896Z,89.25
2023-01-29T17:50:18.883Z,89.25
2023-01-29T17:51:18.864Z,89.25
2023-01-29T17:52:18.851Z,89.25
2023-01-29T17:53:18.842Z,89.25
2023-01-29T17:54:18.834Z,89.04
2023-01-29T17:55:19.018Z,89.14
2023-01-29T17:56:18.816Z,88.93
2023-01-29T17:57:18.794Z,88.93
2023-01-29T17:58:18.789Z,88.93
2023-01-29T17:59:18.771Z,89.04
2023-01-29T18:00:18.763Z,88.93
2023-01-29T18:01:18.728Z,88.93
2023-01-29T18:02:29.042Z,88.93
2023-01-29T18:03:19.731Z,88.93
2023-01-29T18:04:18.755Z,88.83
2023-01-29T18:05:19.086Z,88.83
2023-01-29T18:06:18.670Z,88.83
2023-01-29T18:07:18.657Z,88.83